Grant, CO (80448)

10:09 AM MDT on August 04, 2015 (GMT -0600)
RAWS | | Change Station
CLOSE
Current Station
Personal Weather Station
Location: Grant, CO
Elevation: 10200 ft
Nearby Weather Stations

Elev 10200 ft 39.41 °N, 105.75 °W | Updated 1 hour ago

Clear
Clear
57.0 °F
Feels Like 57.0 °F
N
4.0
Wind Variable Wind from West
Gusts 15.0 mph

Today
High -- | Low -- °F
--% Chance of Precip.
Yesterday
High -- | Low -- °F
Precip. -- in
6:05 AM 8:12 PM
Waning Gibbous, 76% visible
Pressure 30.56 in
Visibility 10.0 miles
Clouds Scattered Clouds 2800 ft
Scattered Clouds 3300 ft
Dew Point 38.0 °F
Humidity 48%
Rainfall in
Snow Depth Not available.
UV 6 out of 12
Pollen 7.60 out of 12
Air Quality Not available.
Flu Activity Not available.
METAR K0CO 041554Z AUTO 31031G46KT 10SM SCT028 SCT033 06/00 A3056 RMK AO2

More Conditions Fewer Conditions

Pressure 30.56 in
Visibility 10.0 miles
Clouds Scattered Clouds 2800 ft
Scattered Clouds 3300 ft
Dew Point 38.0 °F
Humidity 48%
Rainfall in
Snow Depth Not available.
UV 6 out of 12
Pollen 7.60 out of 12
Air Quality Not available.
Flu Activity Not available.
METAR K0CO 041554Z AUTO 31031G46KT 10SM SCT028 SCT033 06/00 A3056 RMK AO2

More Conditions Fewer Conditions

Nowcast | as of 8:49 am MDT on August 4, 2015

West winds at 20 to 40 mph will continue above 10 thousand feet in the Front Range this morning. Gusts will be as high as 60 mph above timberline. Speeds will decrease this afternoon.

×

10-Day Weather Forecast

×

Almanac

Astronomy

Aug. 04, 2015 Rise Set
Actual Time
Civil Twilight
Nautical Twilight
Astronomical Twilight
Moon
Length of Visible Light
Length of Day
Tomorrow will be .
, % of the Moon is Illuminated

Today's Extremes

State Highs State Lows

Community

WunderPhotos

Upload Photos

1,843,912 photos uploaded!

WunderBlogs® & News

Nearby

Air Quality

  Air Quality AQ Index Pollutant
Not available.

Snow Depth

Station Depth Elevation

Earthquake Activity

City Distance Mag. Time & Date
Minimum magnitude displayed is 2.5.

Coastal Water Temperatures

Place Temperature

Stations

Nearby Weather Stations

Station Location Temp. Windchill Dew Point Humidity Wind Precip. Elev Updated Type